Time;durP1;ratioP1;P1;durP2;ratioP2;P2;SDS_P1;SDS_P2;PMS_P1;PMS_P2;Temp;Humidity;BMP_temperature;BMP_pressure;BME280_temperature;BME280_humidity;BME280_pressure;Samples;Min_cycle;Max_cycle;Signal;HPM_P1;HPM_P2
2023/04/16 00:00:13;;;;;;;;;;;6.75;37.82;;;;;;2671886;76;20416;-89
2023/04/16 00:03:46;;;;;;;;;;;6.78;37.80;;;;;;2671333;76;20349;-89
2023/04/16 00:07:11;;;;;;;;;;;6.74;37.87;;;;;;2671982;76;20349;-89
2023/04/16 00:10:39;;;;;;;;;;;6.82;37.83;;;;;;2672220;76;20318;-89
2023/04/16 00:14:07;;;;;;;;;;;6.78;37.75;;;;;;2671621;76;20425;-89
2023/04/16 00:17:35;;;;;;;;;;;6.84;37.75;;;;;;2671958;76;20436;-89
2023/04/16 00:21:04;;;;;;;;;;;6.85;37.51;;;;;;2670905;76;20905;-89
2023/04/16 00:24:32;;;;;;;;;;;6.85;37.40;;;;;;2671874;76;20458;-89
2023/04/16 00:28:00;;;;;;;;;;;6.87;37.40;;;;;;2671324;76;20516;-89
2023/04/16 00:31:28;;;;;;;;;;;6.87;37.14;;;;;;2671226;76;20346;-89
2023/04/16 00:34:56;;;;;;;;;;;6.84;37.12;;;;;;2671357;76;20337;-89
2023/04/16 00:38:28;;;;;;;;;;;6.66;36.90;;;;;;2670896;76;20449;-89
2023/04/16 00:41:54;;;;;;;;;;;6.73;37.37;;;;;;2671187;76;21225;-89
2023/04/16 00:45:23;;;;;;;;;;;6.64;37.31;;;;;;2670949;76;20412;-90
2023/04/16 00:48:51;;;;;;;;;;;6.64;37.43;;;;;;2671494;76;20428;-90
2023/04/16 00:52:19;;;;;;;;;;;6.64;37.37;;;;;;2671180;76;20969;-89
2023/04/16 00:55:47;;;;;;;;;;;6.73;37.22;;;;;;2671663;76;20353;-89
2023/04/16 00:59:15;;;;;;;;;;;6.69;37.08;;;;;;2671577;76;20345;-89
2023/04/16 01:02:43;;;;;;;;;;;6.70;37.32;;;;;;2671311;76;20321;-90
2023/04/16 01:06:11;;;;;;;;;;;6.65;37.34;;;;;;2671627;76;20484;-90
2023/04/16 01:09:39;;;;;;;;;;;6.75;37.37;;;;;;2670589;76;20410;-90
2023/04/16 01:13:07;;;;;;;;;;;6.81;37.18;;;;;;2671206;76;20417;-90
2023/04/16 01:16:36;;;;;;;;;;;6.81;36.95;;;;;;2671714;76;20437;-90
2023/04/16 01:20:04;;;;;;;;;;;6.74;37.11;;;;;;2671385;76;20440;-90
2023/04/16 01:23:32;;;;;;;;;;;6.74;37.16;;;;;;2671483;76;20396;-91
2023/04/16 01:27:00;;;;;;;;;;;6.70;37.08;;;;;;2671595;76;20385;-91
2023/04/16 01:30:28;;;;;;;;;;;6.78;37.26;;;;;;2671183;76;20444;-91
2023/04/16 01:33:56;;;;;;;;;;;6.78;37.19;;;;;;2671469;76;20416;-91
2023/04/16 01:37:29;;;;;;;;;;;6.84;37.14;;;;;;2671731;76;20467;-90
2023/04/16 01:41:00;;;;;;;;;;;6.85;37.10;;;;;;2671680;76;20403;-91
2023/04/16 01:44:25;;;;;;;;;;;6.84;36.99;;;;;;2671085;76;20565;-90
2023/04/16 01:47:53;;;;;;;;;;;6.82;36.79;;;;;;2671779;76;20413;-91
2023/04/16 01:51:21;;;;;;;;;;;6.82;37.05;;;;;;2671739;76;20877;-90
2023/04/16 01:54:49;;;;;;;;;;;6.79;37.14;;;;;;2671790;76;20737;-91
2023/04/16 01:58:17;;;;;;;;;;;6.74;37.11;;;;;;2671755;76;20415;-91
2023/04/16 02:01:45;;;;;;;;;;;6.83;37.35;;;;;;2670549;76;20460;-91
2023/04/16 02:05:14;;;;;;;;;;;6.79;37.20;;;;;;2671649;76;20435;-92
2023/04/16 02:08:42;;;;;;;;;;;6.79;37.17;;;;;;2671398;76;20886;-92
2023/04/16 02:12:10;;;;;;;;;;;6.74;37.05;;;;;;2672046;76;20307;-92
2023/04/16 02:15:38;;;;;;;;;;;6.76;37.20;;;;;;2671992;76;20397;-92
2023/04/16 02:19:06;;;;;;;;;;;6.83;37.31;;;;;;2672161;76;20289;-93
2023/04/16 02:22:34;;;;;;;;;;;6.76;36.98;;;;;;2671372;76;20298;-92
2023/04/16 02:26:03;;;;;;;;;;;6.80;37.21;;;;;;2672540;76;20289;-93
2023/04/16 02:29:31;;;;;;;;;;;6.82;36.95;;;;;;2672844;76;20476;-93
2023/04/16 02:33:00;;;;;;;;;;;6.72;37.01;;;;;;2674386;76;20335;-93
2023/04/16 02:36:28;;;;;;;;;;;6.75;37.01;;;;;;2674393;76;20930;-93
2023/04/16 02:39:57;;;;;;;;;;;6.81;37.11;;;;;;2675392;76;20420;-93
2023/04/16 02:43:25;;;;;;;;;;;6.71;37.18;;;;;;2675494;76;20444;-93
2023/04/16 02:46:53;;;;;;;;;;;6.66;37.24;;;;;;2675548;76;20416;-93
2023/04/16 02:50:21;;;;;;;;;;;6.67;37.22;;;;;;2676278;76;20443;-93
2023/04/16 02:53:49;;;;;;;;;;;6.81;37.12;;;;;;2675848;76;20462;-93
2023/04/16 02:57:17;;;;;;;;;;;6.82;36.69;;;;;;2675198;76;20712;-93
2023/04/16 03:00:45;;;;;;;;;;;6.75;36.37;;;;;;2674816;76;20329;-93
2023/04/16 03:04:13;;;;;;;;;;;6.81;36.71;;;;;;2673563;76;20451;-94
2023/04/16 03:07:41;;;;;;;;;;;6.84;36.53;;;;;;2674649;76;20569;-93
2023/04/16 03:11:10;;;;;;;;;;;6.85;36.27;;;;;;2673000;76;20436;-93
2023/04/16 03:14:38;;;;;;;;;;;6.87;36.40;;;;;;2672868;76;20508;-94
2023/04/16 03:18:06;;;;;;;;;;;6.82;36.17;;;;;;2672279;76;20404;-94
2023/04/16 03:21:34;;;;;;;;;;;6.69;36.35;;;;;;2672707;76;20414;-92
2023/04/16 03:25:02;;;;;;;;;;;6.80;36.59;;;;;;2671995;76;20464;-93
2023/04/16 03:28:30;;;;;;;;;;;6.78;36.26;;;;;;2672115;76;20482;-92
2023/04/16 03:31:58;;;;;;;;;;;6.80;36.49;;;;;;2672449;76;20465;-93
2023/04/16 03:35:26;;;;;;;;;;;6.79;36.24;;;;;;2671479;76;20454;-92
2023/04/16 03:38:57;;;;;;;;;;;6.74;36.24;;;;;;2672030;76;20409;-93
2023/04/16 03:42:25;;;;;;;;;;;6.78;36.18;;;;;;2672375;76;20443;-92
2023/04/16 03:45:53;;;;;;;;;;;6.75;35.98;;;;;;2672939;76;20431;-92
2023/04/16 03:49:21;;;;;;;;;;;6.75;36.18;;;;;;2671757;76;20411;-92
2023/04/16 03:52:49;;;;;;;;;;;6.73;36.21;;;;;;2671935;76;20433;-93
2023/04/16 03:56:17;;;;;;;;;;;6.76;36.32;;;;;;2672377;76;20420;-93
2023/04/16 03:59:45;;;;;;;;;;;6.65;36.08;;;;;;2672073;76;20445;-93
2023/04/16 04:03:15;;;;;;;;;;;6.60;36.52;;;;;;2671872;76;20421;-93
2023/04/16 04:06:43;;;;;;;;;;;6.73;36.64;;;;;;2672546;76;20439;-92
2023/04/16 04:10:11;;;;;;;;;;;6.80;36.47;;;;;;2672246;76;20437;-92
2023/04/16 04:13:39;;;;;;;;;;;6.80;36.27;;;;;;2672361;76;20302;-92
2023/04/16 04:17:07;;;;;;;;;;;6.76;36.37;;;;;;2671670;76;20306;-92
2023/04/16 04:20:35;;;;;;;;;;;6.73;36.50;;;;;;2672815;76;20314;-92
2023/04/16 04:24:03;;;;;;;;;;;6.71;36.50;;;;;;2672530;76;20311;-91
2023/04/16 04:27:31;;;;;;;;;;;6.74;36.59;;;;;;2671136;76;20422;-92
2023/04/16 04:31:00;;;;;;;;;;;6.80;36.47;;;;;;2672406;76;20402;-92
2023/04/16 04:34:28;;;;;;;;;;;6.78;36.37;;;;;;2673371;76;20367;-92
2023/04/16 04:37:56;;;;;;;;;;;6.79;36.30;;;;;;2673685;76;20774;-92
2023/04/16 04:41:25;;;;;;;;;;;6.72;36.46;;;;;;2672988;76;20453;-93
2023/04/16 04:44:53;;;;;;;;;;;6.66;36.40;;;;;;2673219;76;20429;-92
2023/04/16 04:48:25;;;;;;;;;;;6.70;36.16;;;;;;2673092;76;20449;-93
2023/04/16 04:51:51;;;;;;;;;;;6.82;36.44;;;;;;2672593;76;20799;-92
2023/04/16 04:55:19;;;;;;;;;;;6.91;36.33;;;;;;2672609;76;20422;-92
2023/04/16 04:58:47;;;;;;;;;;;6.96;35.97;;;;;;2672205;76;20429;-93
2023/04/16 05:02:16;;;;;;;;;;;7.00;35.82;;;;;;2672371;76;20456;-93
2023/04/16 05:05:44;;;;;;;;;;;7.11;35.93;;;;;;2672831;76;20472;-93
2023/04/16 05:09:12;;;;;;;;;;;7.22;35.62;;;;;;2672410;76;20446;-94
2023/04/16 05:12:40;;;;;;;;;;;7.33;35.31;;;;;;2672204;76;20304;-93
2023/04/16 05:16:08;;;;;;;;;;;7.43;34.92;;;;;;2672007;76;20418;-93
2023/04/16 05:19:36;;;;;;;;;;;7.52;34.82;;;;;;2672559;76;20443;-93
2023/04/16 05:23:05;;;;;;;;;;;7.60;34.66;;;;;;2673547;76;20473;-93
2023/04/16 05:26:36;;;;;;;;;;;7.55;33.96;;;;;;2673183;76;20411;-93
2023/04/16 05:30:04;;;;;;;;;;;7.67;34.14;;;;;;2673551;76;20423;-93
2023/04/16 05:33:32;;;;;;;;;;;7.69;33.80;;;;;;2672592;76;20469;-93
2023/04/16 05:37:03;;;;;;;;;;;7.75;34.13;;;;;;2672794;76;20338;-93
2023/04/16 05:40:31;;;;;;;;;;;7.74;33.78;;;;;;2673473;76;20411;-93
2023/04/16 05:44:02;;;;;;;;;;;7.76;33.33;;;;;;2674025;76;20448;-93
2023/04/16 05:47:29;;;;;;;;;;;7.92;33.89;;;;;;2672640;76;20540;-93
2023/04/16 05:50:57;;;;;;;;;;;7.99;33.61;;;;;;2672732;76;20363;-93
2023/04/16 05:54:26;;;;;;;;;;;8.16;33.41;;;;;;2673845;76;20478;-93
2023/04/16 05:58:03;;;;;;;;;;;8.12;32.22;;;;;;2673633;76;20422;-92
2023/04/16 06:01:26;;;;;;;;;;;8.19;32.57;;;;;;2674214;76;20418;-92
2023/04/16 06:04:54;;;;;;;;;;;8.23;32.67;;;;;;2676354;76;20433;-92
2023/04/16 06:08:22;;;;;;;;;;;8.37;32.26;;;;;;2675823;76;20483;-93
2023/04/16 06:11:50;;;;;;;;;;;8.64;31.89;;;;;;2677202;76;20334;-94
2023/04/16 06:15:19;;;;;;;;;;;8.79;30.90;;;;;;2676794;76;20337;-94
2023/04/16 06:18:47;;;;;;;;;;;8.76;29.65;;;;;;2678446;76;20433;-93
2023/04/16 06:22:15;;;;;;;;;;;9.03;30.64;;;;;;2679052;76;20448;-93
2023/04/16 06:25:43;;;;;;;;;;;9.16;30.13;;;;;;2677570;76;20418;-93
2023/04/16 06:29:11;;;;;;;;;;;9.33;29.90;;;;;;2676953;76;20356;-93
2023/04/16 06:32:39;;;;;;;;;;;9.45;29.74;;;;;;2675456;76;20432;-92
2023/04/16 06:36:07;;;;;;;;;;;9.61;29.98;;;;;;2677563;76;20317;-93
2023/04/16 06:39:36;;;;;;;;;;;9.81;28.99;;;;;;2675675;76;21497;-93
2023/04/16 06:43:04;;;;;;;;;;;9.86;27.46;;;;;;2674540;76;20407;-95
2023/04/16 06:46:32;;;;;;;;;;;10.30;27.16;;;;;;2675292;76;20434;-95
2023/04/16 06:50:00;;;;;;;;;;;10.63;27.28;;;;;;2676157;76;20431;-93
2023/04/16 06:53:28;;;;;;;;;;;10.64;26.91;;;;;;2675661;76;20757;-93
2023/04/16 06:56:56;;;;;;;;;;;10.40;26.61;;;;;;2675019;76;20481;-92
2023/04/16 07:00:24;;;;;;;;;;;10.08;26.71;;;;;;2674702;76;20464;-92
2023/04/16 07:03:52;;;;;;;;;;;10.06;28.42;;;;;;2674947;76;20430;-92
2023/04/16 07:07:20;;;;;;;;;;;9.98;28.97;;;;;;2675570;76;20827;-94
2023/04/16 07:10:49;;;;;;;;;;;9.86;28.74;;;;;;2674593;76;20428;-92
2023/04/16 07:14:17;;;;;;;;;;;9.82;29.35;;;;;;2674341;76;20404;-93
2023/04/16 07:17:45;;;;;;;;;;;9.82;29.64;;;;;;2673279;76;20464;-90
2023/04/16 07:21:13;;;;;;;;;;;9.83;29.44;;;;;;2672191;76;20431;-90
2023/04/16 07:24:41;;;;;;;;;;;9.88;29.09;;;;;;2672705;76;20448;-90
2023/04/16 07:28:09;;;;;;;;;;;10.09;29.17;;;;;;2672064;76;20400;-91
2023/04/16 07:31:37;;;;;;;;;;;10.19;28.26;;;;;;2672288;76;20417;-90
2023/04/16 07:35:05;;;;;;;;;;;10.18;27.20;;;;;;2671824;76;20416;-91
2023/04/16 07:38:34;;;;;;;;;;;10.30;27.82;;;;;;2672735;76;20428;-89
2023/04/16 07:42:02;;;;;;;;;;;10.33;27.01;;;;;;2671279;76;20471;-91
2023/04/16 07:45:32;;;;;;;;;;;10.44;27.36;;;;;;2672075;76;20447;-91
2023/04/16 07:49:00;;;;;;;;;;;10.50;26.89;;;;;;2671206;76;20515;-91
2023/04/16 07:52:28;;;;;;;;;;;10.56;25.26;;;;;;2672533;76;20447;-91
2023/04/16 07:55:56;;;;;;;;;;;10.72;25.75;;;;;;2672071;76;21026;-92
2023/04/16 07:59:25;;;;;;;;;;;10.97;25.67;;;;;;2670651;76;20966;-91
2023/04/16 08:06:35;;;;;;;;;;;11.59;25.91;;;;;;2669722;76;20458;-91
2023/04/16 08:10:03;;;;;;;;;;;11.84;25.62;;;;;;2672922;76;20422;-93
2023/04/16 08:13:34;;;;;;;;;;;11.89;24.43;;;;;;2672889;76;20418;-92
2023/04/16 08:17:02;;;;;;;;;;;11.93;24.02;;;;;;2672126;76;20445;-92
2023/04/16 08:20:30;;;;;;;;;;;11.87;22.49;;;;;;2671583;76;20309;-91
2023/04/16 08:23:58;;;;;;;;;;;12.03;22.86;;;;;;2671553;76;20878;-92
2023/04/16 08:27:27;;;;;;;;;;;12.42;22.96;;;;;;2672794;76;20349;-92
2023/04/16 08:30:55;;;;;;;;;;;12.74;22.41;;;;;;2673417;76;20457;-92
2023/04/16 08:34:26;;;;;;;;;;;12.96;21.08;;;;;;2672727;76;20955;-89
2023/04/16 08:37:56;;;;;;;;;;;13.38;22.43;;;;;;2673540;76;20456;-91
2023/04/16 08:41:27;;;;;;;;;;;13.41;21.18;;;;;;2673882;76;20338;-93
2023/04/16 08:44:55;;;;;;;;;;;13.46;21.17;;;;;;2671476;76;21204;-92
2023/04/16 08:48:23;;;;;;;;;;;13.20;18.99;;;;;;2672155;76;20446;-91
2023/04/16 08:51:51;;;;;;;;;;;13.12;18.03;;;;;;2673120;76;20454;-92
2023/04/16 08:55:25;;;;;;;;;;;12.97;18.39;;;;;;2674410;76;20428;-92
2023/04/16 08:58:57;;;;;;;;;;;13.06;20.33;;;;;;2672853;76;20441;-93
2023/04/16 09:02:26;;;;;;;;;;;13.01;18.93;;;;;;2672744;76;20413;-93
2023/04/16 09:05:56;;;;;;;;;;;12.78;17.80;;;;;;2675055;76;20290;-93
2023/04/16 09:09:24;;;;;;;;;;;13.23;20.46;;;;;;2675620;76;20428;-93
2023/04/16 09:12:52;;;;;;;;;;;13.45;20.53;;;;;;2673743;76;20438;-92
2023/04/16 09:16:20;;;;;;;;;;;13.85;21.26;;;;;;2675214;76;21145;-92
2023/04/16 09:19:51;;;;;;;;;;;13.92;20.22;;;;;;2676909;76;20347;-92
2023/04/16 09:23:25;;;;;;;;;;;14.04;19.88;;;;;;2677136;76;20422;-92
2023/04/16 09:26:56;;;;;;;;;;;13.88;18.21;;;;;;2676710;76;20315;-92
2023/04/16 09:30:27;;;;;;;;;;;14.12;19.10;;;;;;2676910;76;20428;-92
2023/04/16 09:33:55;;;;;;;;;;;14.10;18.07;;;;;;2677322;76;20300;-92
2023/04/16 09:37:26;;;;;;;;;;;14.67;19.15;;;;;;2675480;76;20300;-92
2023/04/16 09:40:55;;;;;;;;;;;15.01;17.80;;;;;;2677736;76;20559;-91
2023/04/16 09:44:26;;;;;;;;;;;15.15;17.06;;;;;;2675919;76;20339;-92
2023/04/16 09:47:54;;;;;;;;;;;15.38;16.60;;;;;;2674630;76;20411;-91
2023/04/16 09:51:23;;;;;;;;;;;15.77;17.19;;;;;;2677137;76;20315;-91
2023/04/16 09:54:55;;;;;;;;;;;16.05;15.80;;;;;;2678190;76;20806;-92
2023/04/16 09:58:26;;;;;;;;;;;15.72;13.65;;;;;;2676760;76;20447;-91
2023/04/16 10:01:56;;;;;;;;;;;15.80;15.90;;;;;;2676932;76;20402;-91
2023/04/16 10:05:24;;;;;;;;;;;15.86;16.72;;;;;;2675265;76;20440;-91
2023/04/16 10:08:55;;;;;;;;;;;16.00;17.80;;;;;;2675722;76;20428;-92
2023/04/16 10:12:22;;;;;;;;;;;16.20;15.26;;;;;;2677291;76;20324;-93
2023/04/16 10:15:56;;;;;;;;;;;16.21;16.58;;;;;;2677992;76;20417;-92
2023/04/16 10:19:26;;;;;;;;;;;16.52;17.71;;;;;;2677293;76;20351;-91
2023/04/16 10:22:54;;;;;;;;;;;16.15;16.71;;;;;;2676033;76;20437;-91
2023/04/16 10:26:31;;;;;;;;;;;16.29;17.38;;;;;;2675470;76;20352;-91
2023/04/16 10:30:05;;;;;;;;;;;16.50;17.05;;;;;;2675173;76;20462;-91
2023/04/16 10:33:40;;;;;;;;;;;16.95;17.57;;;;;;2674934;76;20343;-92
2023/04/16 10:37:08;;;;;;;;;;;16.55;12.19;;;;;;2674413;76;20537;-92
2023/04/16 10:40:37;;;;;;;;;;;16.01;8.47;;;;;;2674120;76;20883;-91
2023/04/16 10:44:08;;;;;;;;;;;15.36;9.07;;;;;;2674060;76;20461;-91
2023/04/16 10:47:37;;;;;;;;;;;15.00;14.50;;;;;;2673279;76;20416;-91
2023/04/16 10:51:07;;;;;;;;;;;14.59;15.48;;;;;;2673911;76;20924;-91
2023/04/16 10:54:38;;;;;;;;;;;14.24;16.28;;;;;;2673745;76;20416;-91
2023/04/16 10:58:16;;;;;;;;;;;13.84;14.20;;;;;;2673616;76;20323;-91
2023/04/16 11:02:00;;;;;;;;;;;13.89;15.61;;;;;;2673897;76;20421;-90
2023/04/16 11:05:16;;;;;;;;;;;14.27;17.26;;;;;;2672972;76;20559;-91
2023/04/16 11:08:47;;;;;;;;;;;14.18;14.42;;;;;;2672874;76;20547;-91
2023/04/16 11:12:19;;;;;;;;;;;14.28;16.29;;;;;;2673059;76;20420;-91
2023/04/16 11:15:47;;;;;;;;;;;14.49;17.12;;;;;;2672981;76;20445;-91
2023/04/16 11:19:21;;;;;;;;;;;14.37;16.93;;;;;;2673528;76;20415;-91
2023/04/16 11:22:50;;;;;;;;;;;14.41;17.26;;;;;;2674386;76;20426;-91
2023/04/16 11:26:19;;;;;;;;;;;14.64;18.18;;;;;;2673576;76;20426;-91
2023/04/16 11:29:47;;;;;;;;;;;14.82;16.71;;;;;;2672927;76;20432;-91
2023/04/16 11:33:15;;;;;;;;;;;15.15;17.68;;;;;;2673120;76;20458;-91
2023/04/16 11:36:43;;;;;;;;;;;15.32;18.11;;;;;;2673843;76;20866;-91
2023/04/16 11:40:17;;;;;;;;;;;15.29;17.70;;;;;;2671310;76;20557;-91
2023/04/16 11:43:42;;;;;;;;;;;14.96;15.70;;;;;;2670976;76;20496;-90
2023/04/16 11:47:12;;;;;;;;;;;14.92;18.13;;;;;;2671726;76;20340;-91
2023/04/16 11:50:40;;;;;;;;;;;14.59;14.30;;;;;;2669515;76;20447;-89
2023/04/16 11:54:09;;;;;;;;;;;14.84;16.62;;;;;;2670019;76;20432;-91
2023/04/16 11:57:37;;;;;;;;;;;15.14;17.28;;;;;;2672543;76;20292;-90
2023/04/16 12:01:05;;;;;;;;;;;15.07;15.25;;;;;;2673556;76;20349;-89
2023/04/16 12:04:35;;;;;;;;;;;15.02;12.98;;;;;;2672077;76;20364;-90
2023/04/16 12:08:04;;;;;;;;;;;15.67;15.71;;;;;;2672021;76;20487;-90
2023/04/16 12:11:32;;;;;;;;;;;16.06;16.13;;;;;;2671740;76;20908;-90
2023/04/16 12:15:06;;;;;;;;;;;16.01;16.45;;;;;;2672295;76;20406;-90
2023/04/16 12:18:31;;;;;;;;;;;15.98;16.85;;;;;;2672595;76;20463;-90
2023/04/16 12:21:59;;;;;;;;;;;15.93;16.80;;;;;;2672115;76;20447;-88
2023/04/16 12:25:27;;;;;;;;;;;15.96;17.12;;;;;;2672447;76;20433;-90
2023/04/16 12:28:55;;;;;;;;;;;16.07;17.70;;;;;;2672368;76;20467;-90
2023/04/16 12:32:23;;;;;;;;;;;16.37;18.06;;;;;;2672802;76;20430;-90
2023/04/16 12:35:51;;;;;;;;;;;16.66;18.14;;;;;;2672509;76;20410;-89
2023/04/16 12:39:22;;;;;;;;;;;16.76;17.99;;;;;;2673212;76;20462;-88
2023/04/16 12:42:50;;;;;;;;;;;17.04;19.20;;;;;;2673138;76;20451;-90
2023/04/16 12:46:18;;;;;;;;;;;17.01;17.92;;;;;;2673023;76;20460;-90
2023/04/16 12:49:46;;;;;;;;;;;16.60;17.89;;;;;;2672878;76;20418;-90
2023/04/16 12:53:14;;;;;;;;;;;16.56;18.99;;;;;;2671750;76;20442;-90
2023/04/16 12:56:42;;;;;;;;;;;16.45;19.15;;;;;;2670737;76;20421;-89
2023/04/16 13:00:11;;;;;;;;;;;16.24;18.63;;;;;;2670945;76;20416;-90
2023/04/16 13:03:39;;;;;;;;;;;15.71;18.05;;;;;;2671388;76;20725;-90
2023/04/16 13:07:08;;;;;;;;;;;15.11;18.39;;;;;;2670075;76;20989;-90
2023/04/16 13:10:36;;;;;;;;;;;14.68;18.26;;;;;;2671571;76;20464;-89
2023/04/16 13:14:04;;;;;;;;;;;14.24;17.55;;;;;;2671449;76;20406;-89
2023/04/16 13:17:32;;;;;;;;;;;14.05;17.61;;;;;;2670501;76;20437;-89
2023/04/16 13:21:00;;;;;;;;;;;14.03;16.22;;;;;;2671264;76;20456;-89
2023/04/16 13:24:28;;;;;;;;;;;14.19;17.77;;;;;;2671590;76;20422;-89
2023/04/16 13:27:56;;;;;;;;;;;14.14;18.18;;;;;;2671006;76;20448;-89
2023/04/16 13:31:25;;;;;;;;;;;14.24;18.41;;;;;;2673338;76;20462;-89
2023/04/16 13:34:53;;;;;;;;;;;14.24;18.63;;;;;;2670537;76;20436;-90
2023/04/16 13:38:21;;;;;;;;;;;14.35;18.65;;;;;;2669048;76;20425;-89
2023/04/16 13:41:50;;;;;;;;;;;13.79;14.61;;;;;;2670003;76;21155;-90
2023/04/16 13:45:19;;;;;;;;;;;13.86;17.65;;;;;;2670679;76;20429;-89
2023/04/16 13:48:47;;;;;;;;;;;14.01;18.35;;;;;;2669846;76;20456;-89
2023/04/16 13:52:15;;;;;;;;;;;14.13;18.57;;;;;;2670651;76;20327;-89
2023/04/16 13:55:43;;;;;;;;;;;14.13;18.23;;;;;;2670772;76;20457;-88
2023/04/16 13:59:11;;;;;;;;;;;13.88;17.48;;;;;;2672061;76;20418;-90
2023/04/16 14:02:40;;;;;;;;;;;13.79;17.48;;;;;;2670678;76;20304;-90
2023/04/16 14:06:09;;;;;;;;;;;13.74;17.16;;;;;;2671354;76;20441;-90
2023/04/16 14:09:37;;;;;;;;;;;13.84;18.19;;;;;;2670498;76;20499;-89
2023/04/16 14:13:05;;;;;;;;;;;13.83;17.65;;;;;;2669810;76;20462;-89
2023/04/16 14:16:33;;;;;;;;;;;13.84;17.96;;;;;;2671032;76;20417;-88
2023/04/16 14:20:01;;;;;;;;;;;13.76;18.25;;;;;;2671816;76;20404;-89
2023/04/16 14:23:30;;;;;;;;;;;13.73;18.74;;;;;;2671259;76;20653;-88
2023/04/16 14:26:58;;;;;;;;;;;14.01;19.70;;;;;;2671103;76;20430;-89
2023/04/16 14:30:26;;;;;;;;;;;14.11;18.28;;;;;;2671635;76;20410;-88
2023/04/16 14:33:54;;;;;;;;;;;14.40;19.76;;;;;;2671385;76;20416;-90
2023/04/16 14:37:23;;;;;;;;;;;14.68;19.89;;;;;;2670759;76;20425;-89
2023/04/16 14:40:51;;;;;;;;;;;14.80;18.31;;;;;;2671263;76;20430;-89
2023/04/16 14:44:19;;;;;;;;;;;15.24;19.53;;;;;;2669965;76;20447;-89
2023/04/16 14:47:48;;;;;;;;;;;15.44;17.32;;;;;;2669851;76;20426;-90
2023/04/16 14:51:16;;;;;;;;;;;15.73;17.35;;;;;;2669332;76;20413;-89
2023/04/16 14:54:45;;;;;;;;;;;15.49;15.21;;;;;;2670016;76;20442;-87
2023/04/16 14:58:13;;;;;;;;;;;15.66;17.05;;;;;;2670921;76;20466;-89
2023/04/16 15:01:41;;;;;;;;;;;15.70;17.42;;;;;;2670471;76;20417;-89
2023/04/16 15:05:09;;;;;;;;;;;15.54;17.05;;;;;;2670562;76;20454;-89
2023/04/16 15:08:37;;;;;;;;;;;15.56;18.02;;;;;;2670768;76;20906;-89
2023/04/16 15:12:05;;;;;;;;;;;15.57;18.40;;;;;;2671208;76;20419;-89
2023/04/16 15:15:34;;;;;;;;;;;15.67;18.65;;;;;;2670906;76;20465;-89
2023/04/16 15:19:02;;;;;;;;;;;15.81;19.13;;;;;;2669942;76;20420;-89
2023/04/16 15:22:30;;;;;;;;;;;16.00;18.29;;;;;;2670114;76;20430;-90
2023/04/16 15:25:58;;;;;;;;;;;16.00;17.87;;;;;;2670141;76;20425;-90
2023/04/16 15:29:26;;;;;;;;;;;15.74;17.54;;;;;;2670825;76;20437;-89
2023/04/16 15:32:54;;;;;;;;;;;15.82;19.08;;;;;;2670325;76;20433;-89
2023/04/16 15:36:22;;;;;;;;;;;15.95;19.57;;;;;;2670741;76;20469;-89
2023/04/16 15:39:50;;;;;;;;;;;15.87;19.41;;;;;;2670420;76;20415;-89
2023/04/16 15:43:18;;;;;;;;;;;15.77;18.65;;;;;;2670975;76;20421;-88
2023/04/16 15:46:46;;;;;;;;;;;15.76;19.02;;;;;;2671319;76;20452;-89
2023/04/16 15:50:20;;;;;;;;;;;15.71;19.22;;;;;;2671190;76;20430;-90
2023/04/16 15:53:57;;;;;;;;;;;15.51;18.16;;;;;;2672250;76;20827;-89
2023/04/16 15:57:25;;;;;;;;;;;15.30;18.87;;;;;;2671165;76;20472;-89
2023/04/16 16:00:53;;;;;;;;;;;14.78;15.56;;;;;;2671958;76;20668;-89
2023/04/16 16:04:21;;;;;;;;;;;14.63;17.61;;;;;;2671216;76;20470;-89
2023/04/16 16:07:49;;;;;;;;;;;14.53;19.07;;;;;;2671838;76;20719;-88
2023/04/16 16:11:17;;;;;;;;;;;14.28;19.05;;;;;;2671196;76;20420;-89
2023/04/16 16:14:49;;;;;;;;;;;13.83;18.45;;;;;;2671191;76;20307;-89
2023/04/16 16:18:17;;;;;;;;;;;13.60;19.18;;;;;;2671878;76;20455;-89
2023/04/16 16:21:50;;;;;;;;;;;13.43;19.05;;;;;;2672072;76;20422;-90
2023/04/16 16:25:16;;;;;;;;;;;13.49;19.55;;;;;;2670735;76;20442;-90
2023/04/16 16:28:44;;;;;;;;;;;13.44;18.72;;;;;;2671696;76;20996;-90
2023/04/16 16:32:12;;;;;;;;;;;13.54;19.87;;;;;;2671451;76;20426;-89
2023/04/16 16:35:41;;;;;;;;;;;13.64;20.20;;;;;;2672289;76;20509;-89
2023/04/16 16:39:14;;;;;;;;;;;13.51;20.13;;;;;;2671356;76;20946;-89
2023/04/16 16:42:39;;;;;;;;;;;13.26;19.73;;;;;;2671723;76;20461;-89
2023/04/16 16:46:08;;;;;;;;;;;13.07;19.75;;;;;;2672167;76;20647;-89
2023/04/16 16:49:36;;;;;;;;;;;12.99;19.94;;;;;;2671181;76;20752;-89
2023/04/16 16:53:05;;;;;;;;;;;13.06;20.72;;;;;;2671997;76;20879;-90
2023/04/16 16:56:38;;;;;;;;;;;13.09;20.44;;;;;;2671186;76;20401;-89
2023/04/16 17:00:09;;;;;;;;;;;13.03;19.92;;;;;;2671858;76;20410;-89
2023/04/16 17:03:32;;;;;;;;;;;12.79;19.70;;;;;;2671358;76;20919;-89
2023/04/16 17:07:01;;;;;;;;;;;12.79;20.55;;;;;;2671280;76;20688;-90
2023/04/16 17:10:29;;;;;;;;;;;12.76;20.41;;;;;;2670134;76;20447;-89
2023/04/16 17:13:57;;;;;;;;;;;12.59;20.28;;;;;;2671265;76;20463;-89
2023/04/16 17:17:25;;;;;;;;;;;12.43;20.57;;;;;;2671174;76;20441;-90
2023/04/16 17:20:53;;;;;;;;;;;12.27;20.41;;;;;;2671370;76;20636;-90
2023/04/16 17:24:26;;;;;;;;;;;12.10;20.73;;;;;;2671419;76;20469;-90
2023/04/16 17:27:51;;;;;;;;;;;11.89;21.01;;;;;;2670611;76;20417;-90
2023/04/16 17:31:19;;;;;;;;;;;11.62;20.77;;;;;;2670735;76;20429;-90
2023/04/16 17:34:47;;;;;;;;;;;11.40;21.05;;;;;;2670921;76;21383;-90
2023/04/16 17:38:16;;;;;;;;;;;11.19;21.02;;;;;;2671163;76;20892;-89
2023/04/16 17:41:44;;;;;;;;;;;10.97;21.13;;;;;;2670931;76;20416;-89
2023/04/16 17:45:12;;;;;;;;;;;10.74;20.79;;;;;;2670412;76;20907;-90
2023/04/16 17:48:40;;;;;;;;;;;10.53;20.68;;;;;;2670785;76;20430;-91
2023/04/16 17:52:08;;;;;;;;;;;10.29;20.60;;;;;;2671013;76;20433;-91
2023/04/16 17:55:36;;;;;;;;;;;10.18;21.27;;;;;;2671118;76;20886;-91
2023/04/16 17:59:04;;;;;;;;;;;9.99;21.11;;;;;;2671977;76;20998;-91
2023/04/16 18:02:33;;;;;;;;;;;9.85;21.02;;;;;;2670579;76;20431;-90
2023/04/16 18:06:01;;;;;;;;;;;9.69;21.12;;;;;;2670524;76;20494;-91
2023/04/16 18:09:30;;;;;;;;;;;9.61;21.36;;;;;;2671738;76;20899;-90
2023/04/16 18:13:01;;;;;;;;;;;9.55;22.26;;;;;;2671246;76;20951;-91
2023/04/16 18:16:29;;;;;;;;;;;9.60;23.32;;;;;;2671223;76;20449;-90
2023/04/16 18:19:57;;;;;;;;;;;9.62;23.72;;;;;;2672033;76;20433;-91
2023/04/16 18:23:26;;;;;;;;;;;9.64;24.04;;;;;;2670812;76;20903;-91
2023/04/16 18:26:55;;;;;;;;;;;9.63;24.32;;;;;;2671169;76;20422;-92
2023/04/16 18:30:23;;;;;;;;;;;9.60;24.21;;;;;;2670653;76;20948;-92
2023/04/16 18:33:51;;;;;;;;;;;9.57;23.93;;;;;;2671674;76;21012;-92
2023/04/16 18:37:19;;;;;;;;;;;9.46;23.49;;;;;;2670803;76;20933;-92
2023/04/16 18:40:48;;;;;;;;;;;9.41;23.47;;;;;;2670776;76;22399;-92
2023/04/16 18:44:18;;;;;;;;;;;9.29;23.01;;;;;;2671126;76;20449;-91
2023/04/16 18:47:46;;;;;;;;;;;9.18;22.69;;;;;;2672419;76;20431;-91
2023/04/16 18:51:14;;;;;;;;;;;9.07;22.62;;;;;;2672209;76;20433;-91
2023/04/16 18:54:43;;;;;;;;;;;9.00;22.53;;;;;;2671938;76;20458;-91
2023/04/16 18:58:11;;;;;;;;;;;8.98;22.66;;;;;;2671170;76;20526;-91
2023/04/16 19:01:39;;;;;;;;;;;8.92;22.57;;;;;;2676331;76;20429;-91
2023/04/16 19:05:07;;;;;;;;;;;8.76;21.80;;;;;;2677549;76;20449;-91
2023/04/16 19:08:36;;;;;;;;;;;8.66;21.24;;;;;;2676764;76;20499;-91
2023/04/16 19:23:32;;;;;;;;;;;8.41;20.93;;;;;;2672362;76;20420;-92
2023/04/16 19:27:01;;;;;;;;;;;8.33;20.41;;;;;;2669510;76;20954;-91
2023/04/16 19:34:11;;;;;;;;;;;8.28;20.25;;;;;;2664063;76;20430;-92
2023/04/16 19:37:58;;;;;;;;;;;8.23;20.14;;;;;;2667151;76;20434;-94
2023/04/16 19:41:28;;;;;;;;;;;8.18;20.27;;;;;;2673932;76;20606;-92
2023/04/16 19:45:10;;;;;;;;;;;8.11;20.01;;;;;;2669313;76;20626;-91
2023/04/16 19:52:29;;;;;;;;;;;7.89;19.05;;;;;;2669946;76;20958;-92
2023/04/16 19:55:59;;;;;;;;;;;7.82;18.87;;;;;;2669012;76;20945;-92
2023/04/16 19:59:27;;;;;;;;;;;7.69;19.25;;;;;;2671572;76;20427;-92
2023/04/16 20:02:55;;;;;;;;;;;7.55;19.46;;;;;;2670999;76;20460;-92
2023/04/16 20:06:25;;;;;;;;;;;7.46;18.80;;;;;;2669416;76;20425;-92
2023/04/16 20:09:56;;;;;;;;;;;7.37;19.69;;;;;;2670350;76;20568;-92
2023/04/16 20:13:26;;;;;;;;;;;7.28;20.37;;;;;;2670968;76;20888;-92
2023/04/16 20:16:54;;;;;;;;;;;7.22;20.45;;;;;;2670565;76;20448;-91
2023/04/16 20:20:22;;;;;;;;;;;7.19;19.88;;;;;;2670972;76;20424;-92
2023/04/16 20:23:53;;;;;;;;;;;7.16;19.43;;;;;;2672155;76;20922;-92
2023/04/16 20:27:28;;;;;;;;;;;7.14;18.83;;;;;;2670417;76;20891;-96
2023/04/16 20:30:55;;;;;;;;;;;7.10;18.64;;;;;;2674266;76;20437;-92
2023/04/16 20:34:23;;;;;;;;;;;7.02;18.15;;;;;;2676507;76;20462;-91
2023/04/16 20:37:54;;;;;;;;;;;6.91;17.89;;;;;;2670799;76;20432;-92
2023/04/16 20:45:36;;;;;;;;;;;6.89;17.87;;;;;;2658998;76;20452;-93
2023/04/16 20:49:01;;;;;;;;;;;6.90;17.26;;;;;;2675551;76;20298;-93